createdAt,value
2019-03-10T00:01:10.931Z,100234.82
2019-03-10T00:03:38.569Z,100241.61
2019-03-10T00:06:05.776Z,100242.05
2019-03-10T00:08:32.879Z,100243.08
2019-03-10T00:10:59.947Z,100242.12
2019-03-10T00:13:27.621Z,100232.86
2019-03-10T00:15:56.533Z,100239.59
2019-03-10T00:18:24.020Z,100227.23
2019-03-10T00:20:51.069Z,100224.57
2019-03-10T00:23:18.363Z,100218.81
2019-03-10T00:25:48.586Z,100220.17
2019-03-10T00:28:15.683Z,100216.77
2019-03-10T00:30:42.738Z,100211.59
2019-03-10T00:33:10.737Z,100207.15
2019-03-10T00:35:38.872Z,100203.40
2019-03-10T00:38:06.220Z,100202.41
2019-03-10T00:41:10.604Z,100204.73
2019-03-10T00:44:06.159Z,100201.41
2019-03-10T00:47:12.622Z,100195.05
2019-03-10T00:50:26.955Z,100194.39
2019-03-10T00:53:00.684Z,100186.64
2019-03-10T00:55:28.117Z,100182.18
2019-03-10T00:57:55.209Z,100186.84
2019-03-10T01:00:22.279Z,100184.50
2019-03-10T01:02:51.328Z,100184.25
2019-03-10T01:05:18.429Z,100181.35
2019-03-10T01:07:45.678Z,100177.41
2019-03-10T01:10:13.367Z,100172.45
2019-03-10T01:12:40.729Z,100171.29
2019-03-10T01:15:08.649Z,100168.34
2019-03-10T01:17:36.871Z,100154.75
2019-03-10T01:20:06.342Z,100161.05
2019-03-10T01:22:34.192Z,100151.17
2019-03-10T01:25:03.314Z,100162.03
2019-03-10T01:27:32.514Z,100158.84
2019-03-10T01:30:01.696Z,100154.63
2019-03-10T01:33:05.407Z,100155.75
2019-03-10T01:35:38.282Z,100157.20
2019-03-10T01:38:05.547Z,100153.25
2019-03-10T01:40:32.651Z,100151.53
2019-03-10T01:42:59.725Z,100138.73
2019-03-10T01:45:26.806Z,100134.88
2019-03-10T01:47:54.967Z,100128.33
2019-03-10T01:50:22.061Z,100120.73
2019-03-10T01:52:49.515Z,100107.20
2019-03-10T01:55:16.582Z,100101.55
2019-03-10T01:57:43.706Z,100091.53
2019-03-10T02:00:13.344Z,100076.97
2019-03-10T02:02:44.623Z,100068.06
2019-03-10T02:05:11.784Z,100052.45
2019-03-10T02:07:39.346Z,100040.91
2019-03-10T02:10:07.911Z,100028.19
2019-03-10T02:12:36.594Z,100020.37
2019-03-10T02:15:04.845Z,100015.40
2019-03-10T02:17:32.545Z,100010.69
2019-03-10T02:19:59.768Z,100005.78
2019-03-10T02:22:27.387Z,100002.66
2019-03-10T02:24:54.474Z,99999.03
2019-03-10T02:27:23.711Z,99994.31
2019-03-10T02:29:51.248Z,99991.55
2019-03-10T02:32:18.387Z,99987.63
2019-03-10T02:34:47.262Z,99968.51
2019-03-10T02:37:14.809Z,99955.03
2019-03-10T02:39:41.934Z,99941.63
2019-03-10T02:42:08.999Z,99938.70
2019-03-10T02:44:36.458Z,99933.38
2019-03-10T02:47:03.586Z,99921.22
2019-03-10T02:49:30.691Z,99910.69
2019-03-10T02:51:57.920Z,99900.73
2019-03-10T02:54:25.660Z,99898.22
2019-03-10T02:56:52.985Z,99895.63
2019-03-10T02:59:20.463Z,99901.36
2019-03-10T03:01:48.014Z,99907.71
2019-03-10T03:04:15.562Z,99901.27
2019-03-10T03:06:42.675Z,99889.20
2019-03-10T03:09:09.757Z,99878.30
2019-03-10T03:11:37.651Z,99873.88
2019-03-10T03:14:07.825Z,99864.09
2019-03-10T03:16:35.282Z,99861.05
2019-03-10T03:19:02.484Z,99845.59
2019-03-10T03:21:42.203Z,99856.58
2019-03-10T03:23:58.662Z,99853.27
2019-03-10T03:26:25.941Z,99843.19
2019-03-10T03:28:54.188Z,99843.41
2019-03-10T03:31:22.652Z,99834.41
2019-03-10T03:33:50.821Z,99823.67
2019-03-10T03:36:29.752Z,99820.47
2019-03-10T03:39:27.230Z,99820.42
2019-03-10T03:41:54.430Z,99817.86
2019-03-10T03:44:21.516Z,99798.44
2019-03-10T03:46:48.623Z,99795.27
2019-03-10T03:49:15.755Z,99778.96
2019-03-10T03:51:42.924Z,99770.28
2019-03-10T03:54:11.214Z,99765.25
2019-03-10T03:56:38.345Z,99751.61
2019-03-10T03:59:05.440Z,99745.85
2019-03-10T04:01:45.106Z,99737.47
2019-03-10T04:04:12.196Z,99723.14
2019-03-10T04:06:39.240Z,99710.30
2019-03-10T04:09:07.401Z,99704.91
2019-03-10T04:11:36.494Z,99702.47
2019-03-10T04:14:03.891Z,99705.84
2019-03-10T04:16:31.437Z,99693.03
2019-03-10T04:18:58.492Z,99685.14
2019-03-10T04:21:27.396Z,99682.05
2019-03-10T04:23:54.618Z,99676.62
2019-03-10T04:26:22.180Z,99673.26
2019-03-10T04:28:51.110Z,99661.22
2019-03-10T04:31:18.263Z,99656.45
2019-03-10T04:33:45.334Z,99651.51
2019-03-10T04:36:13.504Z,99650.11
2019-03-10T04:38:40.819Z,99642.01
2019-03-10T04:41:08.199Z,99640.20
2019-03-10T04:43:35.274Z,99627.34
2019-03-10T04:46:02.389Z,99624.52
2019-03-10T04:48:29.441Z,99609.34
2019-03-10T04:50:56.510Z,99600.02
2019-03-10T04:53:23.657Z,99592.45
2019-03-10T04:56:13.972Z,99584.03
2019-03-10T04:58:46.319Z,99583.14
2019-03-10T05:01:13.375Z,99575.73
2019-03-10T05:03:40.447Z,99573.73
2019-03-10T05:06:07.808Z,99569.97
2019-03-10T05:08:35.304Z,99568.03
2019-03-10T05:11:02.406Z,99559.06
2019-03-10T05:13:29.579Z,99554.71
2019-03-10T05:15:56.641Z,99549.50
2019-03-10T05:18:26.001Z,99534.84
2019-03-10T05:20:53.137Z,99536.48
2019-03-10T05:23:40.232Z,99532.33
2019-03-10T05:26:07.817Z,99532.41
2019-03-10T05:28:36.683Z,99530.98
2019-03-10T05:31:03.781Z,99525.12
2019-03-10T05:33:31.955Z,99513.67
2019-03-10T05:35:59.368Z,99498.06
2019-03-10T05:38:28.251Z,99496.19
2019-03-10T05:40:55.365Z,99501.47
2019-03-10T05:43:23.543Z,99498.53
2019-03-10T05:45:50.638Z,99500.10
2019-03-10T05:48:17.766Z,99491.43
2019-03-10T05:50:44.843Z,99487.33
2019-03-10T05:53:12.087Z,99476.31
2019-03-10T05:55:40.408Z,99460.48
2019-03-10T05:58:07.511Z,99457.51
2019-03-10T06:00:42.689Z,99447.86
2019-03-10T06:03:04.180Z,99445.93
2019-03-10T06:05:31.419Z,99439.30
2019-03-10T06:07:58.506Z,99431.03
2019-03-10T06:10:25.745Z,99420.74
2019-03-10T06:12:52.849Z,99409.77
2019-03-10T06:15:21.053Z,99406.16
2019-03-10T06:17:48.751Z,99398.50
2019-03-10T06:20:15.810Z,99386.81
2019-03-10T06:22:42.914Z,99376.14
2019-03-10T06:25:10.322Z,99372.27
2019-03-10T06:27:38.782Z,99362.98
2019-03-10T06:30:07.565Z,99366.96
2019-03-10T06:32:34.984Z,99364.25
2019-03-10T06:35:02.044Z,99353.11
2019-03-10T06:37:29.170Z,99337.49
2019-03-10T06:39:56.659Z,99327.42
2019-03-10T06:42:25.187Z,99326.20
2019-03-10T06:44:54.065Z,99325.34
2019-03-10T06:47:24.246Z,99314.49
2019-03-10T06:49:51.825Z,99310.45
2019-03-10T06:52:19.021Z,99310.54
2019-03-10T06:54:46.351Z,99292.75
2019-03-10T06:57:13.417Z,99287.14
2019-03-10T06:59:42.311Z,99283.47
2019-03-10T07:02:09.606Z,99264.36
2019-03-10T07:04:39.372Z,99270.88
2019-03-10T07:07:06.451Z,99261.98
2019-03-10T07:09:35.295Z,99254.00
2019-03-10T07:12:02.403Z,99256.80
2019-03-10T07:14:31.264Z,99243.77
2019-03-10T07:16:58.423Z,99236.55
2019-03-10T07:19:25.523Z,99231.59
2019-03-10T07:21:52.597Z,99238.53
2019-03-10T07:24:19.785Z,99236.52
2019-03-10T07:26:48.892Z,99224.19
2019-03-10T07:29:21.331Z,99215.59
2019-03-10T07:32:09.069Z,99209.80
2019-03-10T07:34:54.679Z,99221.00
2019-03-10T07:37:44.297Z,99217.12
2019-03-10T07:40:27.710Z,99212.31
2019-03-10T07:43:16.214Z,99206.80
2019-03-10T07:46:03.877Z,99209.09
2019-03-10T07:48:59.737Z,99204.97
2019-03-10T07:51:45.569Z,99205.56
2019-03-10T07:54:32.259Z,99198.72
2019-03-10T07:57:19.635Z,99205.56
2019-03-10T08:00:21.449Z,99190.02
2019-03-10T08:03:00.670Z,99199.44
2019-03-10T08:05:45.998Z,99195.52
2019-03-10T08:08:50.605Z,99176.40
2019-03-10T08:11:37.592Z,99171.70
2019-03-10T08:14:33.429Z,99172.36
2019-03-10T08:17:18.474Z,99184.16
2019-03-10T08:20:05.224Z,99178.33
2019-03-10T08:22:47.247Z,99167.23
2019-03-10T08:25:37.136Z,99172.87
2019-03-10T08:28:20.382Z,99164.62
2019-03-10T08:31:26.128Z,99142.64
2019-03-10T08:34:12.856Z,99160.91
2019-03-10T08:36:55.910Z,99152.59
2019-03-10T08:39:43.029Z,99152.12
2019-03-10T08:42:20.445Z,99153.33
2019-03-10T08:45:10.092Z,99151.92
2019-03-10T08:47:47.593Z,99143.38
2019-03-10T08:50:40.790Z,99134.44
2019-03-10T08:53:14.979Z,99131.06
2019-03-10T08:56:00.167Z,99128.35
2019-03-10T08:58:36.746Z,99121.86
2019-03-10T09:01:30.063Z,99114.47
2019-03-10T09:04:15.793Z,99120.20
2019-03-10T09:06:50.847Z,99105.80
2019-03-10T09:09:25.374Z,99093.20
2019-03-10T09:11:58.951Z,99102.95
2019-03-10T09:14:35.997Z,99092.38
2019-03-10T09:17:22.043Z,99099.86
2019-03-10T09:20:03.726Z,99100.63
2019-03-10T09:22:56.553Z,99096.84
2019-03-10T09:25:37.186Z,99089.55
2019-03-10T09:28:18.235Z,99086.50
2019-03-10T09:31:02.890Z,99080.67
2019-03-10T09:33:49.547Z,99072.94
2019-03-10T09:36:30.339Z,99065.94
2019-03-10T09:39:25.776Z,99057.88
2019-03-10T09:42:15.126Z,99057.80
2019-03-10T09:45:10.884Z,99043.34
2019-03-10T09:47:56.529Z,99045.44
2019-03-10T09:50:46.247Z,99035.66
2019-03-10T09:53:31.903Z,99051.77
2019-03-10T09:56:13.032Z,99060.34
2019-03-10T09:58:59.154Z,99046.42
2019-03-10T10:02:03.740Z,99036.14
2019-03-10T10:05:06.944Z,99025.84
2019-03-10T10:07:53.873Z,99032.98
2019-03-10T10:10:40.001Z,99029.70
2019-03-10T10:13:29.665Z,99032.19
2019-03-10T10:16:15.177Z,99049.67
2019-03-10T10:19:20.295Z,99059.20
2019-03-10T10:22:10.196Z,99045.25
2019-03-10T10:25:09.612Z,99035.64
2019-03-10T10:27:58.507Z,99022.72
2019-03-10T10:30:50.135Z,99016.98
2019-03-10T10:33:42.226Z,99029.69
2019-03-10T10:36:32.433Z,99036.51
2019-03-10T10:39:32.547Z,99022.05
2019-03-10T10:42:18.162Z,99016.43
2019-03-10T10:45:10.960Z,99018.72
2019-03-10T10:48:04.461Z,99036.66
2019-03-10T10:50:47.401Z,99003.51
2019-03-10T10:53:34.564Z,99018.98
2019-03-10T10:56:30.187Z,99027.65
2019-03-10T10:59:20.710Z,99040.17
2019-03-10T11:02:10.618Z,99040.23
2019-03-10T11:04:49.581Z,99041.45
2019-03-10T11:07:33.237Z,99041.25
2019-03-10T11:10:21.948Z,99046.91
2019-03-10T11:13:15.035Z,99041.78
2019-03-10T11:16:07.710Z,99025.09
2019-03-10T11:18:54.537Z,99041.18
2019-03-10T11:21:27.779Z,99021.94
2019-03-10T11:24:06.764Z,99029.98
2019-03-10T11:26:56.313Z,99028.09
2019-03-10T11:29:35.821Z,99015.86
2019-03-10T11:32:31.814Z,99000.13
2019-03-10T11:35:16.937Z,98982.72
2019-03-10T11:37:51.029Z,98992.81
2019-03-10T11:40:42.200Z,98978.70
2019-03-10T11:43:34.726Z,98988.46
2019-03-10T11:46:22.439Z,98983.25
2019-03-10T11:49:08.172Z,98977.72
2019-03-10T11:51:57.856Z,98971.40
2019-03-10T11:54:37.860Z,98980.79
2019-03-10T11:57:24.524Z,98983.03
2019-03-10T11:59:58.563Z,98988.57
2019-03-10T12:02:48.583Z,98990.53
2019-03-10T12:05:36.949Z,98943.02
2019-03-10T12:08:13.342Z,98956.14
2019-03-10T12:10:40.443Z,98966.77
2019-03-10T12:13:07.819Z,98976.36
2019-03-10T12:15:34.937Z,98987.93
2019-03-10T12:18:02.072Z,98971.54
2019-03-10T12:20:29.255Z,98952.39
2019-03-10T12:22:56.780Z,98940.20
2019-03-10T12:25:23.992Z,98970.84
2019-03-10T12:27:51.192Z,98961.17
2019-03-10T12:30:18.470Z,98949.86
2019-03-10T12:32:45.592Z,98945.78
2019-03-10T12:35:12.772Z,98965.98
2019-03-10T12:37:39.879Z,98946.83
2019-03-10T12:40:07.921Z,98974.91
2019-03-10T12:42:34.973Z,98937.98
2019-03-10T12:45:02.154Z,98929.20
2019-03-10T12:47:32.067Z,98948.28
2019-03-10T12:49:59.548Z,98951.67
2019-03-10T12:52:26.732Z,98938.73
2019-03-10T12:54:53.885Z,98933.42
2019-03-10T12:57:23.920Z,98933.58
2019-03-10T12:59:51.812Z,98912.56
2019-03-10T13:02:18.921Z,98933.44
2019-03-10T13:04:45.977Z,98926.83
2019-03-10T13:07:13.054Z,98942.96
2019-03-10T13:09:40.208Z,98922.16
2019-03-10T13:12:09.071Z,98930.92
2019-03-10T13:14:36.289Z,98955.77
2019-03-10T13:17:03.517Z,98949.88
2019-03-10T13:19:31.118Z,98954.75
2019-03-10T13:22:08.760Z,98930.00
2019-03-10T13:24:35.935Z,98950.95
2019-03-10T13:27:03.016Z,98952.77
2019-03-10T13:29:30.458Z,98975.58
2019-03-10T13:31:57.542Z,98960.47
2019-03-10T13:34:24.657Z,98966.16
2019-03-10T13:36:53.586Z,98962.91
2019-03-10T13:39:21.679Z,98954.16
2019-03-10T13:41:48.756Z,98985.77
2019-03-10T13:44:16.435Z,98982.51
2019-03-10T13:46:45.318Z,98944.84
2019-03-10T13:49:12.453Z,98989.27
2019-03-10T13:51:39.567Z,99019.55
2019-03-10T13:54:08.757Z,99015.42
2019-03-10T13:56:37.642Z,99021.55
2019-03-10T13:59:05.112Z,99011.30
2019-03-10T14:01:32.353Z,99027.61
2019-03-10T14:04:00.345Z,99033.56
2019-03-10T14:06:27.477Z,99062.63
2019-03-10T14:08:55.128Z,99037.97
2019-03-10T14:11:22.711Z,99073.11
2019-03-10T14:13:49.800Z,99074.47
2019-03-10T14:16:16.858Z,99110.38
2019-03-10T14:18:43.940Z,99105.81
2019-03-10T14:21:11.017Z,99119.46
2019-03-10T14:23:38.847Z,99103.22
2019-03-10T14:26:07.801Z,99101.45
2019-03-10T14:28:34.905Z,99138.88
2019-03-10T14:31:02.024Z,99135.52
2019-03-10T14:33:29.083Z,99143.22
2019-03-10T14:35:56.207Z,99143.20
2019-03-10T14:38:23.456Z,99144.45
2019-03-10T14:40:50.541Z,99160.75
2019-03-10T14:43:17.584Z,99199.70
2019-03-10T14:45:44.662Z,99167.06
2019-03-10T14:48:11.927Z,99209.59
2019-03-10T14:50:39.103Z,99202.38
2019-03-10T14:53:06.161Z,99207.86
2019-03-10T14:55:33.279Z,99199.89
2019-03-10T14:58:00.329Z,99215.50
2019-03-10T15:00:27.577Z,99208.40
2019-03-10T15:02:54.615Z,99202.03
2019-03-10T15:05:21.795Z,99233.43
2019-03-10T15:07:51.115Z,99222.63
2019-03-10T15:10:18.278Z,99235.30
2019-03-10T15:12:45.364Z,99250.84
2019-03-10T15:15:21.655Z,99246.41
2019-03-10T15:17:42.070Z,99227.88
2019-03-10T15:20:09.917Z,99265.95
2019-03-10T15:22:38.246Z,99290.36
2019-03-10T15:25:06.943Z,99289.06
2019-03-10T15:27:35.094Z,99275.75
2019-03-10T15:30:03.509Z,99279.23
2019-03-10T15:32:30.880Z,99295.39
2019-03-10T15:34:58.108Z,99310.31
2019-03-10T15:37:25.254Z,99311.74
2019-03-10T15:39:53.245Z,99311.34
2019-03-10T15:42:20.638Z,99325.01
2019-03-10T15:44:50.217Z,99326.90
2019-03-10T15:47:18.742Z,99321.89
2019-03-10T15:49:46.022Z,99352.23
2019-03-10T15:52:13.383Z,99353.02
2019-03-10T15:54:40.475Z,99350.43
2019-03-10T15:57:07.996Z,99362.05
2019-03-10T15:59:35.301Z,99369.13
2019-03-10T16:02:02.715Z,99398.30
2019-03-10T16:04:29.816Z,99402.42
2019-03-10T16:06:57.010Z,99399.27
2019-03-10T16:09:24.687Z,99409.53
2019-03-10T16:11:51.937Z,99409.97
2019-03-10T16:14:19.023Z,99398.80
2019-03-10T16:16:46.152Z,99439.69
2019-03-10T16:19:13.224Z,99444.67
2019-03-10T16:21:40.381Z,99445.55
2019-03-10T16:24:07.913Z,99461.63
2019-03-10T16:26:35.540Z,99445.52
2019-03-10T16:29:02.758Z,99412.33
2019-03-10T16:31:30.162Z,99471.88
2019-03-10T16:33:58.857Z,99480.86
2019-03-10T16:36:26.270Z,99493.41
2019-03-10T16:38:53.461Z,99485.72
2019-03-10T16:41:20.680Z,99529.41
2019-03-10T16:43:48.897Z,99503.13
2019-03-10T16:46:17.284Z,99485.30
2019-03-10T16:48:44.410Z,99486.70
2019-03-10T16:51:12.090Z,99508.59
2019-03-10T16:53:41.618Z,99525.52
2019-03-10T16:56:08.293Z,99528.27
2019-03-10T16:58:35.404Z,99526.63
2019-03-10T17:01:02.472Z,99541.15
2019-03-10T17:03:29.861Z,99543.73
2019-03-10T17:05:57.248Z,99530.39
2019-03-10T17:08:26.528Z,99547.53
2019-03-10T17:10:53.699Z,99559.44
2019-03-10T17:13:20.856Z,99572.03
2019-03-10T17:15:47.989Z,99579.83
2019-03-10T17:18:15.597Z,99557.41
2019-03-10T17:20:42.710Z,99586.45
2019-03-10T17:23:09.746Z,99594.11
2019-03-10T17:25:36.922Z,99584.50
2019-03-10T17:28:04.611Z,99591.22
2019-03-10T17:30:31.748Z,99588.72
2019-03-10T17:32:59.092Z,99605.72
2019-03-10T17:35:26.194Z,99597.66
2019-03-10T17:37:53.923Z,99627.80
2019-03-10T17:40:21.211Z,99634.75
2019-03-10T17:42:48.564Z,99637.39
2019-03-10T17:45:17.291Z,99645.89
2019-03-10T17:47:44.617Z,99655.45
2019-03-10T17:50:12.060Z,99656.14
2019-03-10T17:52:39.157Z,99672.31
2019-03-10T17:55:06.664Z,99676.42
2019-03-10T17:57:34.038Z,99677.72
2019-03-10T18:00:02.637Z,99687.00
2019-03-10T18:02:30.996Z,99697.94
2019-03-10T18:05:00.371Z,99714.16
2019-03-10T18:07:30.004Z,99707.61
2019-03-10T18:09:57.401Z,99730.36
2019-03-10T18:12:24.519Z,99721.37
2019-03-10T18:14:51.648Z,99755.63
2019-03-10T18:17:18.742Z,99783.78
2019-03-10T18:19:45.825Z,99765.00
2019-03-10T18:22:26.441Z,99796.34
2019-03-10T18:24:55.084Z,99819.84
2019-03-10T18:27:22.772Z,99847.33
2019-03-10T18:29:49.930Z,99862.85
2019-03-10T18:32:17.089Z,99907.65
2019-03-10T18:34:44.471Z,99958.84
2019-03-10T18:37:11.534Z,99925.14
2019-03-10T18:39:39.019Z,99935.52
2019-03-10T18:42:06.534Z,99944.36
2019-03-10T18:44:33.604Z,99948.78
2019-03-10T18:47:00.714Z,99930.94
2019-03-10T18:49:30.086Z,99925.83
2019-03-10T18:51:57.214Z,99947.33
2019-03-10T18:54:24.359Z,99950.06
2019-03-10T18:56:51.607Z,99940.45
2019-03-10T18:59:20.719Z,99963.16
2019-03-10T19:01:52.090Z,99966.36
2019-03-10T19:04:19.493Z,99971.45
2019-03-10T19:06:46.669Z,99980.40
2019-03-10T19:09:16.369Z,99976.09
2019-03-10T19:11:44.025Z,99983.65
2019-03-10T19:14:12.232Z,99991.34
2019-03-10T19:16:39.357Z,99995.88
2019-03-10T19:19:07.200Z,100001.41
2019-03-10T19:21:35.450Z,100011.09
2019-03-10T19:24:03.064Z,99989.43
2019-03-10T19:26:31.140Z,100014.97
2019-03-10T19:28:58.317Z,100016.55
2019-03-10T19:31:25.494Z,100029.23
2019-03-10T19:33:53.064Z,100014.64
2019-03-10T19:36:21.685Z,100043.11
2019-03-10T19:38:50.979Z,100040.23
2019-03-10T19:41:18.688Z,100045.95
2019-03-10T19:43:47.636Z,100055.76
2019-03-10T19:46:14.827Z,100049.38
2019-03-10T19:48:42.013Z,100062.44
2019-03-10T19:51:09.428Z,100066.17
2019-03-10T19:53:36.735Z,100066.34
2019-03-10T19:56:04.216Z,100072.27
2019-03-10T19:58:31.951Z,100087.53
2019-03-10T20:00:59.134Z,100093.60
2019-03-10T20:03:28.295Z,100104.38
2019-03-10T20:05:55.577Z,100113.02
2019-03-10T20:08:22.715Z,100129.58
2019-03-10T20:10:49.891Z,100140.90
2019-03-10T20:13:18.598Z,100140.28
2019-03-10T20:15:45.776Z,100154.22
2019-03-10T20:18:12.870Z,100173.79
2019-03-10T20:20:40.934Z,100213.73
2019-03-10T20:23:08.445Z,100194.08
2019-03-10T20:25:35.520Z,100186.36
2019-03-10T20:28:02.626Z,100191.42
2019-03-10T20:30:30.508Z,100198.78
2019-03-10T20:32:57.582Z,100206.27
2019-03-10T20:35:24.931Z,100205.45
2019-03-10T20:37:54.976Z,100209.16
2019-03-10T20:40:22.312Z,100203.40
2019-03-10T20:42:56.798Z,100190.83
2019-03-10T20:45:28.344Z,100205.75
2019-03-10T20:47:57.049Z,100202.86
2019-03-10T20:50:24.275Z,100213.86
2019-03-10T20:52:53.562Z,100220.59
2019-03-10T20:55:20.700Z,100218.30
2019-03-10T20:57:49.721Z,100223.31
2019-03-10T21:00:17.126Z,100229.48
2019-03-10T21:02:45.419Z,100236.19
2019-03-10T21:05:13.004Z,100238.16
2019-03-10T21:08:32.676Z,100240.48
2019-03-10T21:14:12.999Z,100253.66
2019-03-10T21:16:40.106Z,100262.02
2019-03-10T21:19:07.450Z,100278.33
2019-03-10T21:21:36.002Z,100226.45
2019-03-10T21:24:03.086Z,100262.58
2019-03-10T21:26:30.643Z,100273.17
2019-03-10T21:28:58.100Z,100266.87
2019-03-10T21:31:25.198Z,100263.01
2019-03-10T21:33:52.330Z,100268.42
2019-03-10T21:36:19.869Z,100269.16
2019-03-10T21:38:46.949Z,100276.06
2019-03-10T21:41:14.708Z,100275.39
2019-03-10T21:43:43.047Z,100278.69
2019-03-10T21:46:10.240Z,100279.00
2019-03-10T21:48:37.357Z,100293.38
2019-03-10T21:51:04.441Z,100294.82
2019-03-10T21:53:31.505Z,100286.69
2019-03-10T21:55:59.077Z,100294.16
2019-03-10T21:58:26.167Z,100294.94
2019-03-10T22:00:53.263Z,100304.16
2019-03-10T22:03:20.316Z,100312.38
2019-03-10T22:05:47.398Z,100310.02
2019-03-10T22:08:14.768Z,100322.17
2019-03-10T22:10:41.859Z,100320.66
2019-03-10T22:13:09.301Z,100330.13
2019-03-10T22:15:41.580Z,100327.53
2019-03-10T22:18:05.929Z,100327.41
2019-03-10T22:20:33.081Z,100339.95
2019-03-10T22:23:00.148Z,100341.67
2019-03-10T22:25:27.220Z,100345.43
2019-03-10T22:27:54.417Z,100349.55
2019-03-10T22:30:21.681Z,100353.88
2019-03-10T22:32:49.302Z,100351.00
2019-03-10T22:35:16.364Z,100349.39
2019-03-10T22:37:44.944Z,100363.16
2019-03-10T22:40:12.238Z,100361.88
2019-03-10T22:42:39.611Z,100365.42
2019-03-10T22:45:08.049Z,100375.03
2019-03-10T22:47:35.071Z,100376.11
2019-03-10T22:50:02.923Z,100374.50
2019-03-10T22:52:32.209Z,100384.85
2019-03-10T22:54:59.795Z,100391.06
2019-03-10T22:57:30.277Z,100399.36
2019-03-10T22:59:57.817Z,100388.74
2019-03-10T23:02:24.868Z,100403.27
2019-03-10T23:04:51.911Z,100397.45
2019-03-10T23:07:19.065Z,100404.19
2019-03-10T23:09:46.130Z,100402.86
2019-03-10T23:12:13.241Z,100399.98
2019-03-10T23:14:42.107Z,100397.22
2019-03-10T23:17:09.143Z,100405.20
2019-03-10T23:19:36.358Z,100396.98
2019-03-10T23:22:03.413Z,100401.66
2019-03-10T23:24:30.455Z,100397.70
2019-03-10T23:26:58.232Z,100397.61
2019-03-10T23:29:25.457Z,100394.52
2019-03-10T23:31:52.603Z,100392.77
2019-03-10T23:34:19.674Z,100394.59
2019-03-10T23:36:46.733Z,100387.51
2019-03-10T23:39:13.780Z,100393.16
2019-03-10T23:41:41.349Z,100390.96
2019-03-10T23:44:08.394Z,100391.41
2019-03-10T23:46:35.469Z,100385.63
2019-03-10T23:49:02.541Z,100380.89
2019-03-10T23:51:29.654Z,100377.25
2019-03-10T23:53:58.313Z,100373.28
2019-03-10T23:56:25.647Z,100376.51
2019-03-10T23:58:52.711Z,100365.76
